KHUL 221153Z AUTO 01009KT 10SM CLR M09/M16 A3060 RMK AO2 SLP372 T10941156 11022 21094 53027